Brooks, Canada
Current Conditions -  °F | °C
As of 5:00 PM on Monday 22 Dec 2014 (Local Time) from CYXH Reporting Station
Broken Clouds Broken Clouds  
Wind Chill: 24°   Ceiling: 9000
Heat Index: 34°   Visibility: 15mi
Dew Point: 27°   Wind: 14mph
Humidity: 75%   Direction: 290°WNW
Pressure: 30.01"   Gusts: NA
Location:  50.57°N, 111.9°W
Report Text: CYXH 230000Z 29012KT 15SM BKN090 BKN280 01/M03 A3001 RMK AC5CI1 SLP190
Loading
Personal Weather Stations






























Interactive Weather Map New forecast layout! Learn more

10-Day Weather Forecast

Advertisements
Track Severe Weather on mobile